Time;durP1;ratioP1;P1;durP2;ratioP2;P2;SDS_P1;SDS_P2;PMS_P1;PMS_P2;Temp;Humidity;BMP_temperature;BMP_pressure;BME280_temperature;BME280_humidity;BME280_pressure;Samples;Min_cycle;Max_cycle;Signal;HPM_P1;HPM_P2
2023/07/28 00:02:11;;;;;;;1.30;1.20;;;;;;;17.92;100.00;99307.66;5003690;28;20226;-87
2023/07/28 00:04:36;;;;;;;1.70;1.60;;;;;;;18.01;100.00;99313.63;5018084;28;20195;-86
2023/07/28 00:07:03;;;;;;;0.70;0.70;;;;;;;17.99;100.00;99315.22;5005017;28;20200;-87
2023/07/28 00:09:28;;;;;;;0.87;0.87;;;;;;;17.98;100.00;99311.66;5002879;28;20215;-87
2023/07/28 00:11:55;;;;;;;1.57;1.47;;;;;;;18.00;100.00;99320.34;5002506;28;20219;-87
2023/07/28 00:14:20;;;;;;;2.33;2.13;;;;;;;18.03;100.00;99316.00;5022262;28;20239;-87
2023/07/28 00:16:46;;;;;;;1.93;1.83;;;;;;;18.01;100.00;99318.38;5024013;28;20218;-86
2023/07/28 00:19:11;;;;;;;1.80;1.50;;;;;;;18.01;100.00;99319.16;5016854;28;20215;-87
2023/07/28 00:21:37;;;;;;;1.80;1.70;;;;;;;18.05;100.00;99325.50;5003508;28;20180;-87
2023/07/28 00:24:03;;;;;;;1.10;0.93;;;;;;;18.00;100.00;99323.13;5014318;28;20241;-86
2023/07/28 00:26:28;;;;;;;1.60;1.50;;;;;;;18.00;100.00;99320.34;5002658;28;20212;-87
2023/07/28 00:28:53;;;;;;;0.30;0.30;;;;;;;18.01;100.00;99323.91;5019008;28;20263;-87
2023/07/28 00:31:19;;;;;;;1.43;1.33;;;;;;;18.00;100.00;99320.34;5023369;28;20681;-87
2023/07/28 00:33:44;;;;;;;1.00;1.00;;;;;;;18.00;100.00;99325.09;5022228;28;20203;-87
2023/07/28 00:36:09;;;;;;;2.00;1.50;;;;;;;18.03;100.00;99322.31;5018869;28;20579;-87
2023/07/28 00:38:34;;;;;;;2.03;1.93;;;;;;;17.96;100.00;99327.06;5009269;28;20194;-88
2023/07/28 00:41:00;;;;;;;1.90;1.80;;;;;;;17.98;100.00;99327.44;5009008;28;20191;-88
2023/07/28 00:43:25;;;;;;;0.77;0.77;;;;;;;17.90;100.00;99325.81;5005173;28;20686;-87
2023/07/28 00:45:51;;;;;;;0.10;0.10;;;;;;;17.92;100.00;99337.28;5006104;28;20200;-87
2023/07/28 00:48:16;;;;;;;0.30;0.23;;;;;;;17.92;100.00;99337.28;5009204;28;20811;-87
2023/07/28 00:50:45;;;;;;;1.70;1.60;;;;;;;17.89;100.00;99338.06;5026792;28;20201;-87
2023/07/28 00:53:10;;;;;;;1.10;1.10;;;;;;;17.90;100.00;99334.91;5006670;28;20200;-88
2023/07/28 00:55:36;;;;;;;0.33;0.33;;;;;;;17.90;100.00;99331.34;5005848;28;20762;-87
2023/07/28 00:58:02;;;;;;;1.37;1.27;;;;;;;17.86;100.00;99336.88;5006824;28;20594;-87
2023/07/28 01:00:27;;;;;;;0.60;0.60;;;;;;;17.88;100.00;99342.00;5009227;28;20261;-85
2023/07/28 01:02:52;;;;;;;0.63;0.63;;;;;;;17.86;100.00;99334.09;5001125;28;20719;-86
2023/07/28 01:05:19;;;;;;;0.50;0.50;;;;;;;17.94;100.00;99351.50;5026677;28;20187;-87
2023/07/28 01:07:58;;;;;;;1.97;1.87;;;;;;;17.84;100.00;99328.97;5019727;28;20198;-87
2023/07/28 01:10:31;;;;;;;0.70;0.70;;;;;;;17.86;100.00;99325.81;4998107;28;20717;-86
2023/07/28 01:12:56;;;;;;;0.17;0.17;;;;;;;17.87;100.00;99323.84;5005499;28;20204;-86
2023/07/28 01:15:21;;;;;;;0.93;0.87;;;;;;;17.88;100.00;99326.22;5026541;28;20271;-87
2023/07/28 01:17:47;;;;;;;0.27;0.27;;;;;;;17.93;100.00;99325.81;5009773;28;20176;-86
2023/07/28 01:20:12;;;;;;;0.77;0.77;;;;;;;17.89;100.00;99329.78;5007809;28;20602;-87
2023/07/28 01:23:00;;;;;;;0.13;0.13;;;;;;;17.87;100.00;99324.63;5026235;28;20187;-87
2023/07/28 01:25:44;;;;;;;0.70;0.70;;;;;;;17.87;100.00;99323.84;5019831;28;20202;-89
2023/07/28 01:28:12;;;;;;;2.10;1.93;;;;;;;17.76;100.00;99310.75;5018164;28;20173;-86
2023/07/28 01:30:38;;;;;;;1.50;1.40;;;;;;;17.78;100.00;99322.22;5002794;28;20192;-87
2023/07/28 01:33:06;;;;;;;1.20;1.20;;;;;;;17.71;100.00;99322.19;5014514;28;20735;-87
2023/07/28 01:35:32;;;;;;;0.10;0.10;;;;;;;17.71;100.00;99316.66;5008474;28;20187;-87
2023/07/28 01:37:57;;;;;;;8.93;0.53;;;;;;;17.75;100.00;99325.75;5007828;28;20261;-86
2023/07/28 01:40:23;;;;;;;1.40;1.30;;;;;;;17.70;100.00;99325.34;5025008;28;20184;-86
2023/07/28 01:42:48;;;;;;;0.53;0.53;;;;;;;17.75;100.00;99320.22;5012997;28;20201;-87
2023/07/28 01:45:13;;;;;;;0.00;0.00;;;;;;;17.80;100.00;99324.63;5004904;28;20195;-87
2023/07/28 01:47:39;;;;;;;0.50;0.50;;;;;;;17.74;100.00;99326.94;5004837;28;20212;-87
2023/07/28 01:50:04;;;;;;;0.93;0.43;;;;;;;17.75;100.00;99324.97;5005942;28;20196;-87
2023/07/28 01:52:30;;;;;;;0.47;0.47;;;;;;;17.77;100.00;99319.84;5007962;28;20670;-86
2023/07/28 01:54:55;;;;;;;0.23;0.23;;;;;;;17.70;100.00;99312.31;5025662;28;20184;-88
2023/07/28 01:57:20;;;;;;;0.50;0.50;;;;;;;17.68;100.00;99308.34;5004619;28;20180;-87
2023/07/28 01:59:45;;;;;;;0.70;0.70;;;;;;;17.64;100.00;99313.81;5012928;28;20196;-86
2023/07/28 02:02:12;;;;;;;0.00;0.00;;;;;;;17.73;100.00;99321.78;5015045;28;20642;-87
2023/07/28 02:04:37;;;;;;;0.43;0.43;;;;;;;17.73;100.00;99314.31;5025679;28;20200;-88
2023/07/28 02:07:02;;;;;;;0.10;0.10;;;;;;;17.75;100.00;99322.19;5024414;28;20199;-86
2023/07/28 02:09:28;;;;;;;1.00;0.70;;;;;;;17.75;100.00;99325.75;5004206;28;20714;-87
2023/07/28 02:11:53;;;;;;;0.60;0.60;;;;;;;17.75;100.00;99316.66;5021810;28;20195;-87
2023/07/28 02:14:19;;;;;;;0.03;0.03;;;;;;;17.79;100.00;99332.09;5012396;28;20311;-87
2023/07/28 02:16:44;;;;;;;0.63;0.53;;;;;;;17.81;100.00;99328.97;5022172;28;20184;-86
2023/07/28 02:19:09;;;;;;;0.43;0.43;;;;;;;17.79;100.00;99332.09;5004307;28;20782;-87
2023/07/28 02:21:35;;;;;;;0.80;0.80;;;;;;;17.77;100.00;99331.69;5003904;28;20208;-87
2023/07/28 02:24:00;;;;;;;0.30;0.30;;;;;;;17.77;100.00;99328.91;5004781;28;20294;-87
2023/07/28 02:26:25;;;;;;;0.13;0.13;;;;;;;17.74;100.00;99326.94;5007590;28;20215;-86
2023/07/28 02:28:50;;;;;;;0.87;0.87;;;;;;;17.73;100.00;99324.56;5025263;28;20263;-86
2023/07/28 02:31:16;;;;;;;0.30;0.30;;;;;;;17.75;100.00;99322.19;5004220;28;20188;-87
2023/07/28 02:33:41;;;;;;;0.80;0.80;;;;;;;17.73;100.00;99324.56;5021766;28;20200;-86
2023/07/28 02:36:06;;;;;;;0.67;0.67;;;;;;;17.72;100.00;99329.28;5003367;28;20184;-87
2023/07/28 02:38:32;;;;;;;0.77;0.77;;;;;;;17.71;100.00;99333.25;5003749;28;20184;-87
2023/07/28 02:40:57;;;;;;;0.47;0.47;;;;;;;17.76;100.00;99329.31;5004128;28;20180;-85
2023/07/28 02:43:22;;;;;;;1.10;1.07;;;;;;;17.73;100.00;99333.63;5029468;28;20212;-87
2023/07/28 02:45:55;;;;;;;0.57;0.57;;;;;;;17.77;100.00;99328.91;5003775;28;20196;-86
2023/07/28 02:48:23;;;;;;;0.30;0.30;;;;;;;17.81;100.00;99334.47;5007176;28;20188;-86
2023/07/28 02:50:52;;;;;;;0.80;0.80;;;;;;;17.84;100.00;99331.72;5007054;28;20237;-87
2023/07/28 02:53:18;;;;;;;0.20;0.20;;;;;;;17.81;100.00;99326.19;5003685;28;20291;-87
2023/07/28 02:55:45;;;;;;;0.53;0.53;;;;;;;17.72;100.00;99329.28;5011836;28;20180;-87
2023/07/28 02:58:10;;;;;;;0.40;0.40;;;;;;;17.72;100.00;99334.03;5023515;28;20268;-87
2023/07/28 03:00:39;;;;;;;0.20;0.20;;;;;;;17.76;100.00;99340.34;5006932;28;20278;-88
2023/07/28 03:03:06;;;;;;;0.33;0.33;;;;;;;17.73;100.00;99344.69;5024392;28;20208;-87
2023/07/28 03:05:32;;;;;;;0.00;0.00;;;;;;;17.75;100.00;99350.63;5002264;28;20180;-86
2023/07/28 03:07:58;;;;;;;0.37;0.37;;;;;;;17.70;100.00;99347.44;5003916;28;20187;-86
2023/07/28 03:10:23;;;;;;;0.43;0.43;;;;;;;17.73;100.00;99347.44;5020625;28;20211;-86
2023/07/28 03:12:48;;;;;;;0.10;0.10;;;;;;;17.75;100.00;99349.81;5003398;28;20276;-87
2023/07/28 03:15:13;;;;;;;0.00;0.00;;;;;;;17.80;100.00;99366.06;5014129;28;20195;-87
2023/07/28 03:17:39;;;;;;;0.20;0.20;;;;;;;17.85;100.00;99360.16;5024445;28;20254;-87
2023/07/28 03:20:04;;;;;;;0.43;0.37;;;;;;;17.82;100.00;99360.94;5022885;28;20673;-86
2023/07/28 03:22:30;;;;;;;0.60;0.60;;;;;;;17.76;100.00;99345.88;5017129;28;20199;-86
2023/07/28 03:24:56;;;;;;;0.00;0.00;;;;;;;17.86;100.00;99358.19;5024448;28;20176;-86
2023/07/28 03:27:21;;;;;;;0.90;0.67;;;;;;;17.80;100.00;99357.75;5024122;28;20199;-87
2023/07/28 03:29:47;;;;;;;0.73;0.67;;;;;;;17.80;100.00;99355.78;5006960;28;20206;-86
2023/07/28 03:32:12;;;;;;;0.10;0.10;;;;;;;17.79;100.00;99356.16;5003790;28;20184;-87
2023/07/28 03:34:37;;;;;;;0.30;0.30;;;;;;;17.78;100.00;99369.19;5003043;28;20340;-87
2023/07/28 03:37:03;;;;;;;0.60;0.60;;;;;;;17.75;100.00;99361.66;5004240;28;20180;-87
2023/07/28 03:39:29;;;;;;;0.20;0.20;;;;;;;17.76;100.00;99373.50;5002025;28;20543;-87
2023/07/28 03:41:55;;;;;;;0.20;0.20;;;;;;;17.72;100.00;99356.91;5003069;28;20254;-86
2023/07/28 03:44:20;;;;;;;0.50;0.40;;;;;;;17.77;100.00;99372.34;4998466;28;20686;-87
2023/07/28 03:46:46;;;;;;;0.50;0.50;;;;;;;17.76;100.00;99368.78;5006642;28;20284;-86
2023/07/28 03:49:12;;;;;;;0.00;0.00;;;;;;;17.79;100.00;99356.97;5007644;28;20194;-87
2023/07/28 03:51:37;;;;;;;0.20;0.20;;;;;;;17.78;100.00;99371.94;5006821;28;20187;-86
2023/07/28 03:54:02;;;;;;;3.50;1.23;;;;;;;17.73;100.00;99361.25;5016154;28;20279;-87
2023/07/28 03:56:28;;;;;;;0.17;0.17;;;;;;;17.78;100.00;99365.63;5010485;28;20642;-88
2023/07/28 03:58:54;;;;;;;0.50;0.50;;;;;;;17.79;100.00;99358.91;5010436;28;20270;-86
2023/07/28 04:01:21;;;;;;;0.00;0.00;;;;;;;17.81;100.00;99360.13;5006894;28;20258;-87
2023/07/28 04:03:46;;;;;;;6.90;0.60;;;;;;;17.78;100.00;99371.94;5015095;28;20200;-87
2023/07/28 04:06:12;;;;;;;0.50;0.50;;;;;;;17.78;100.00;99366.41;5026764;28;20258;-86
2023/07/28 04:08:37;;;;;;;0.60;0.53;;;;;;;17.82;100.00;99372.78;5012621;28;20180;-87
2023/07/28 04:11:03;;;;;;;0.50;0.47;;;;;;;17.78;100.00;99366.41;5006418;28;20176;-87
2023/07/28 04:13:28;;;;;;;1.60;1.50;;;;;;;17.79;100.00;99359.75;5003262;28;20218;-87
2023/07/28 04:15:53;;;;;;;2.43;0.80;;;;;;;17.87;100.00;99368.06;5027711;28;20176;-87
2023/07/28 04:18:19;;;;;;;0.73;0.73;;;;;;;17.88;100.00;99370.44;5001986;28;20715;-86
2023/07/28 04:20:44;;;;;;;0.20;0.20;;;;;;;17.87;100.00;99360.56;5003303;28;20188;-86
2023/07/28 04:23:09;;;;;;;1.17;0.77;;;;;;;17.86;100.00;99367.25;5008504;28;20231;-87
2023/07/28 04:25:35;;;;;;;0.73;0.40;;;;;;;17.87;100.00;99368.84;5017916;28;20262;-87
2023/07/28 04:28:00;;;;;;;0.30;0.30;;;;;;;17.88;100.00;99377.94;5027012;28;20191;-86
2023/07/28 04:30:25;;;;;;;0.37;0.37;;;;;;;17.88;100.00;99377.94;5020118;28;20206;-88
2023/07/28 04:32:51;;;;;;;0.20;0.20;;;;;;;17.89;100.00;99373.97;5009509;28;20203;-86
2023/07/28 04:35:16;;;;;;;0.17;0.17;;;;;;;17.88;100.00;99378.72;5006871;28;20185;-87
2023/07/28 04:37:41;;;;;;;0.57;0.57;;;;;;;17.92;100.00;99374.00;5006362;28;20181;-86
2023/07/28 04:40:08;;;;;;;0.10;0.10;;;;;;;17.92;100.00;99365.69;5023921;28;20190;-87
2023/07/28 04:42:34;;;;;;;0.23;0.17;;;;;;;17.92;100.00;99371.22;5005981;28;20191;-87
2023/07/28 04:44:59;;;;;;;0.43;0.43;;;;;;;17.93;100.00;99363.72;5006422;28;20185;-87
2023/07/28 04:47:24;;;;;;;0.20;0.20;;;;;;;17.90;100.00;99372.81;5023932;28;20196;-85
2023/07/28 04:49:49;;;;;;;0.27;0.27;;;;;;;17.86;100.00;99380.28;5005487;28;20715;-87
2023/07/28 04:52:15;;;;;;;0.00;0.00;;;;;;;17.87;100.00;99371.59;5026277;28;20184;-88
2023/07/28 04:54:40;;;;;;;0.40;0.40;;;;;;;17.84;100.00;99375.16;5006169;28;20200;-86
2023/07/28 04:57:06;;;;;;;0.30;0.30;;;;;;;17.86;100.00;99396.88;5007297;28;20231;-87
2023/07/28 04:59:31;;;;;;;0.50;0.50;;;;;;;17.89;100.00;99387.78;5008361;28;20179;-87
2023/07/28 05:01:56;;;;;;;0.80;0.80;;;;;;;17.85;100.00;99393.31;5000864;28;20248;-87
2023/07/28 05:04:21;;;;;;;0.00;0.00;;;;;;;17.84;100.00;99403.56;5009444;28;20218;-86
2023/07/28 05:06:47;;;;;;;0.50;0.30;;;;;;;17.77;100.00;99394.44;5019698;28;20210;-86
2023/07/28 05:09:12;;;;;;;3.00;0.93;;;;;;;17.73;100.00;99408.22;5033626;28;20233;-86
2023/07/28 05:11:37;;;;;;;0.27;0.27;;;;;;;17.69;100.00;99407.44;5003052;28;20346;-86
2023/07/28 05:14:05;;;;;;;0.60;0.60;;;;;;;17.61;100.00;99402.97;5023916;28;20295;-87
2023/07/28 05:16:31;;;;;;;0.60;0.60;;;;;;;17.61;100.00;99416.78;5004234;28;20180;-85
2023/07/28 05:18:56;;;;;;;1.20;1.10;;;;;;;17.59;100.00;99418.38;5005420;28;20192;-86
2023/07/28 05:21:21;;;;;;;0.40;0.40;;;;;;;17.59;100.00;99419.16;5005512;28;20184;-86
2023/07/28 05:23:47;;;;;;;0.73;0.50;;;;;;;17.62;100.00;99423.13;5005303;28;20753;-87
2023/07/28 05:26:12;;;;;;;5.67;0.60;;;;;;;17.58;100.00;99417.56;5005027;28;20206;-86
2023/07/28 05:28:38;;;;;;;0.50;0.50;;;;;;;17.62;100.00;99423.91;5003367;28;20203;-85
2023/07/28 05:31:04;;;;;;;3.57;3.13;;;;;;;17.66;100.00;99426.72;5012428;28;20543;-85
2023/07/28 05:33:30;;;;;;;0.53;0.53;;;;;;;17.70;100.00;99431.09;5016167;28;20571;-86
2023/07/28 05:36:02;;;;;;;0.33;0.27;;;;;;;17.73;100.00;99433.09;5013488;28;20188;-87
2023/07/28 05:38:28;;;;;;;0.77;0.77;;;;;;;17.71;100.00;99440.97;5017861;28;20182;-86
2023/07/28 05:41:06;;;;;;;0.30;0.30;;;;;;;17.81;100.00;99442.25;5009191;28;20560;-86
2023/07/28 05:43:32;;;;;;;0.53;0.53;;;;;;;17.82;100.00;99438.31;4983049;28;20550;-86
2023/07/28 05:45:59;;;;;;;31.90;1.97;;;;;;;17.84;100.00;99439.50;5023066;28;20233;-87
2023/07/28 05:48:25;;;;;;;0.30;0.30;;;;;;;17.86;100.00;99443.84;5000052;28;20184;-87
2023/07/28 05:50:52;;;;;;;0.30;0.30;;;;;;;17.91;100.00;99438.75;4999985;28;20238;-85
2023/07/28 05:53:17;;;;;;;1.13;1.00;;;;;;;17.97;100.00;99447.47;5014475;28;20682;-86
2023/07/28 05:55:42;;;;;;;0.83;0.83;;;;;;;17.92;100.00;99437.56;5004842;28;20241;-87
2023/07/28 05:58:08;;;;;;;1.30;1.30;;;;;;;17.98;100.00;99436.03;5012906;28;20215;-86
2023/07/28 06:00:33;;;;;;;0.77;0.77;;;;;;;18.06;100.00;99442.38;5004459;28;20674;-85
2023/07/28 06:02:59;;;;;;;0.40;0.40;;;;;;;18.09;100.00;99441.63;5022620;28;20295;-86
2023/07/28 06:05:24;;;;;;;0.57;0.57;;;;;;;18.17;100.00;99442.44;5033779;28;20180;-87
2023/07/28 06:07:49;;;;;;;0.50;0.50;;;;;;;18.21;100.00;99444.03;5007941;28;20314;-87
2023/07/28 06:10:15;;;;;;;1.70;1.23;;;;;;;18.28;100.00;99440.53;5005224;28;20599;-86
2023/07/28 06:12:40;;;;;;;0.43;0.43;;;;;;;18.36;100.00;99433.84;5027780;28;20211;-87
2023/07/28 06:15:06;;;;;;;3.07;1.47;;;;;;;18.32;100.00;99430.28;5017108;28;20192;-86
2023/07/28 06:17:31;;;;;;;19.60;11.30;;;;;;;18.38;100.00;99437.81;5028546;28;20191;-86
2023/07/28 06:19:57;;;;;;;1.60;1.50;;;;;;;18.42;100.00;99433.09;5022004;28;20215;-87
2023/07/28 06:22:22;;;;;;;0.77;0.67;;;;;;;18.47;100.00;99436.66;5021438;28;20180;-85
2023/07/28 06:24:48;;;;;;;0.50;0.50;;;;;;;18.51;100.00;99437.47;5003543;28;20194;-87
2023/07/28 06:27:13;;;;;;;0.67;0.67;;;;;;;18.45;100.00;99439.81;5004324;28;20349;-86
2023/07/28 06:29:39;;;;;;;1.10;1.07;;;;;;;18.49;100.00;99442.59;5022263;28;20694;-87
2023/07/28 06:32:05;;;;;;;1.20;1.10;;;;;;;18.55;100.00;99450.16;5003828;28;20192;-86
2023/07/28 06:34:30;;;;;;;1.30;1.17;;;;;;;18.54;100.00;99445.78;5000872;28;20641;-86
2023/07/28 06:36:56;;;;;;;0.83;0.80;;;;;;;18.50;100.00;99444.97;4994601;28;20197;-86
2023/07/28 06:39:21;;;;;;;0.40;0.33;;;;;;;18.50;100.00;99447.72;5002089;28;20208;-86
2023/07/28 06:41:46;;;;;;;2.03;1.93;;;;;;;18.42;100.00;99449.69;5007574;28;20180;-87
2023/07/28 06:44:11;;;;;;;1.00;1.00;;;;;;;18.47;100.00;99448.50;5011789;28;20203;-88
2023/07/28 06:46:37;;;;;;;0.97;0.97;;;;;;;18.44;100.00;99461.16;5003908;28;20295;-86
2023/07/28 06:49:03;;;;;;;0.43;0.43;;;;;;;18.47;100.00;99461.56;5018863;28;20177;-87
2023/07/28 06:51:28;;;;;;;0.80;0.80;;;;;;;18.49;100.00;99473.03;5024814;28;20729;-86
2023/07/28 06:53:54;;;;;;;1.20;1.20;;;;;;;18.51;100.00;99462.34;5006842;28;20203;-87
2023/07/28 06:56:19;;;;;;;1.00;0.97;;;;;;;18.47;100.00;99473.41;5006831;28;20180;-87
2023/07/28 06:58:44;;;;;;;1.47;1.37;;;;;;;18.44;100.00;99460.38;5008310;28;20266;-87
2023/07/28 07:01:10;;;;;;;1.10;1.10;;;;;;;18.47;100.00;99478.94;4999164;28;20184;-85
2023/07/28 07:03:36;;;;;;;1.03;1.03;;;;;;;18.44;100.00;99477.75;5007573;28;20613;-87
2023/07/28 07:06:02;;;;;;;6.13;1.83;;;;;;;18.42;100.00;99482.09;5000235;28;20627;-86
2023/07/28 07:08:27;;;;;;;1.37;1.37;;;;;;;18.52;100.00;99488.88;5020257;28;20186;-85
2023/07/28 07:10:53;;;;;;;1.50;1.40;;;;;;;18.63;100.00;99489.69;5022630;28;20554;-86
2023/07/28 07:13:19;;;;;;;2.27;2.10;;;;;;;18.56;100.00;99487.69;5003604;28;20208;-86
2023/07/28 07:15:45;;;;;;;2.87;2.67;;;;;;;18.58;100.00;99490.06;5003436;28;20211;-86
2023/07/28 07:18:10;;;;;;;1.97;1.87;;;;;;;18.61;100.00;99487.31;5003847;28;20184;-85
2023/07/28 07:20:39;;;;;;;1.27;1.27;;;;;;;18.66;100.00;99492.50;4997243;28;20191;-86
2023/07/28 07:23:05;;;;;;;1.00;1.00;;;;;;;18.74;100.00;99504.38;5019942;28;20207;-85
2023/07/28 07:25:30;;;;;;;1.63;1.40;;;;;;;18.75;100.00;99508.75;5027678;28;20238;-85
2023/07/28 07:27:56;;;;;;;2.03;1.93;;;;;;;18.70;100.00;99507.16;5013627;28;20204;-85
2023/07/28 07:30:22;;;;;;;0.97;0.97;;;;;;;18.74;100.00;99504.38;5017799;28;20179;-86
2023/07/28 07:32:47;;;;;;;1.90;1.80;;;;;;;18.69;100.00;99500.03;5019100;28;20271;-85
2023/07/28 07:35:12;;;;;;;1.83;1.73;;;;;;;18.70;100.00;99506.34;5029950;28;20184;-84
2023/07/28 07:37:38;;;;;;;6.27;2.30;;;;;;;18.76;100.00;99506.75;5010264;28;20186;-86
2023/07/28 07:40:07;;;;;;;1.97;1.40;;;;;;;18.75;100.00;99514.28;5010956;28;20188;-86
2023/07/28 07:42:46;;;;;;;1.50;1.40;;;;;;;18.75;100.00;99505.19;4996933;28;20204;-86
2023/07/28 07:45:12;;;;;;;1.33;1.30;;;;;;;18.77;100.00;99503.59;5012928;28;20236;-86
2023/07/28 07:47:39;;;;;;;1.90;1.13;;;;;;;18.85;100.00;99501.66;5030037;28;20203;-86
2023/07/28 07:50:06;;;;;;;1.10;1.00;;;;;;;18.95;100.00;99511.97;5031392;28;20190;-85
2023/07/28 07:52:31;;;;;;;2.20;2.10;;;;;;;19.09;100.00;99512.00;5012742;28;20188;-86
2023/07/28 07:54:56;;;;;;;1.10;1.10;;;;;;;19.38;100.00;99521.16;5005124;28;20206;-85
2023/07/28 07:57:22;;;;;;;4.63;1.53;;;;;;;19.56;100.00;99515.72;5030811;28;20230;-86
2023/07/28 07:59:47;;;;;;;1.70;1.60;;;;;;;19.74;100.00;99524.03;5030807;28;20185;-86
2023/07/28 08:02:12;;;;;;;0.90;0.90;;;;;;;19.81;100.00;99510.16;5010316;28;20191;-86
2023/07/28 08:04:38;;;;;;;1.03;1.03;;;;;;;19.99;100.00;99510.16;5018949;28;20789;-86
2023/07/28 08:07:04;;;;;;;1.80;1.70;;;;;;;20.11;100.00;99515.31;5036460;28;20261;-86
2023/07/28 08:09:30;;;;;;;1.73;1.63;;;;;;;20.00;100.00;99506.19;5034246;28;20190;-85
2023/07/28 08:11:56;;;;;;;1.70;1.60;;;;;;;20.02;100.00;99510.16;5026186;28;20271;-86
2023/07/28 08:14:21;;;;;;;1.80;1.70;;;;;;;20.09;100.00;99517.66;5020852;28;20219;-86
2023/07/28 08:16:47;;;;;;;1.30;1.20;;;;;;;20.17;100.00;99517.25;5005591;28;20180;-87
2023/07/28 08:19:12;;;;;;;1.70;1.60;;;;;;;20.33;100.00;99521.59;5029347;28;20184;-86
2023/07/28 08:21:37;;;;;;;0.60;0.60;;;;;;;20.55;100.00;99525.94;5030255;28;20634;-86
2023/07/28 08:24:03;;;;;;;1.27;1.13;;;;;;;20.62;98.57;99525.91;5011607;28;20208;-86
2023/07/28 08:26:29;;;;;;;16.33;1.37;;;;;;;20.64;96.77;99522.72;5007187;28;20207;-86
2023/07/28 08:28:55;;;;;;;1.43;1.37;;;;;;;20.62;96.04;99519.56;5026825;28;20188;-87
2023/07/28 08:31:20;;;;;;;1.93;1.83;;;;;;;20.77;96.94;99530.19;5000186;28;20259;-86
2023/07/28 08:33:46;;;;;;;1.03;1.03;;;;;;;20.75;95.61;99515.94;5007676;28;20204;-87
2023/07/28 08:36:11;;;;;;;1.43;1.33;;;;;;;20.85;94.23;99521.84;5014974;28;20173;-85
2023/07/28 08:38:36;;;;;;;1.87;1.77;;;;;;;20.95;93.62;99519.00;5003889;28;20688;-85
2023/07/28 08:41:01;;;;;;;1.43;1.37;;;;;;;20.97;92.15;99518.59;5026535;28;20179;-85
2023/07/28 08:43:27;;;;;;;0.70;0.70;;;;;;;21.12;92.37;99519.31;5026873;28;20326;-85
2023/07/28 08:45:53;;;;;;;1.50;1.40;;;;;;;21.14;91.54;99517.75;5034645;28;20180;-84
2023/07/28 08:48:19;;;;;;;0.43;0.43;;;;;;;21.14;91.29;99522.50;5026462;28;20188;-85
2023/07/28 08:50:44;;;;;;;1.57;1.00;;;;;;;21.15;91.35;99526.88;5010668;28;20184;-84
2023/07/28 08:53:09;;;;;;;0.67;0.67;;;;;;;21.13;90.32;99521.72;5024886;28;20447;-83
2023/07/28 08:55:35;;;;;;;1.50;1.40;;;;;;;21.14;89.95;99539.19;5008887;28;20198;-84
2023/07/28 08:58:15;;;;;;;2.80;1.70;;;;;;;21.10;89.40;99528.06;5008836;28;20183;-85
2023/07/28 09:00:41;;;;;;;0.77;0.77;;;;;;;21.20;90.09;99530.00;5028239;28;20566;-85
2023/07/28 09:03:08;;;;;;;1.73;1.17;;;;;;;21.34;89.44;99531.94;5005240;28;20212;-86
2023/07/28 09:05:34;;;;;;;1.17;1.17;;;;;;;21.24;87.87;99533.53;5022181;28;20207;-85
2023/07/28 09:07:59;;;;;;;0.50;0.50;;;;;;;21.41;88.39;99543.03;5028083;28;20214;-86
2023/07/28 09:10:24;;;;;;;1.53;1.07;;;;;;;21.60;87.48;99556.38;5011756;28;20270;-86
2023/07/28 09:12:50;;;;;;;0.70;0.70;;;;;;;21.68;86.19;99541.22;5030622;28;20204;-85
2023/07/28 09:15:16;;;;;;;0.40;0.40;;;;;;;21.81;85.99;99540.72;5030936;28;20208;-85
2023/07/28 09:17:43;;;;;;;0.80;0.80;;;;;;;21.67;85.14;99545.19;5022941;28;20176;-86
2023/07/28 09:20:13;;;;;;;1.10;1.00;;;;;;;21.43;85.54;99540.63;5024603;28;20180;-85
2023/07/28 09:22:39;;;;;;;0.67;0.67;;;;;;;21.19;86.73;99531.19;5008485;28;20188;-86
2023/07/28 09:25:15;;;;;;;0.87;0.87;;;;;;;21.42;88.17;99544.59;5017754;28;20555;-85
2023/07/28 09:27:41;;;;;;;1.30;1.30;;;;;;;21.59;85.84;99552.03;5034025;28;20246;-85
2023/07/28 09:30:07;;;;;;;0.80;0.80;;;;;;;21.72;85.25;99554.34;5009667;28;20659;-86
2023/07/28 09:32:33;;;;;;;1.50;1.30;;;;;;;21.47;85.01;99543.38;5011160;28;20244;-86
2023/07/28 09:35:20;;;;;;;1.37;1.27;;;;;;;21.40;86.02;99549.75;5015309;28;20190;-85
2023/07/28 09:37:48;;;;;;;0.83;0.83;;;;;;;21.50;86.81;99551.69;5023919;28;20684;-85
2023/07/28 09:40:17;;;;;;;0.43;0.43;;;;;;;21.71;87.03;99553.53;5016989;28;20665;-86
2023/07/28 09:42:44;;;;;;;0.97;0.93;;;;;;;21.56;84.78;99552.06;5031309;28;20566;-86
2023/07/28 09:45:10;;;;;;;0.90;0.90;;;;;;;21.26;84.81;99536.72;5015311;28;20195;-86
2023/07/28 09:47:37;;;;;;;1.30;1.20;;;;;;;21.26;85.81;99564.53;5025282;28;20208;-84
2023/07/28 09:50:04;;;;;;;1.03;1.03;;;;;;;21.43;86.09;99556.50;5014098;28;20188;-84
2023/07/28 09:52:53;;;;;;;0.53;0.53;;;;;;;21.44;84.49;99552.53;5020993;28;20191;-84
2023/07/28 09:55:20;;;;;;;0.80;0.80;;;;;;;21.60;84.69;99550.81;5021447;28;20184;-86
2023/07/28 09:57:53;;;;;;;0.40;0.40;;;;;;;21.68;83.71;99548.78;5004595;28;20229;-86
2023/07/28 10:00:21;;;;;;;0.80;0.80;;;;;;;21.75;83.42;99557.06;5024604;28;20185;-85
2023/07/28 10:02:47;;;;;;;1.10;1.10;;;;;;;21.87;83.57;99561.38;5006231;28;20837;-86
2023/07/28 10:05:15;;;;;;;0.80;0.80;;;;;;;22.07;82.30;99558.84;5036487;28;20259;-86
2023/07/28 10:07:44;;;;;;;0.70;0.70;;;;;;;22.25;79.71;99559.44;5021484;28;20258;-85
2023/07/28 10:10:12;;;;;;;1.23;1.23;;;;;;;22.18;80.04;99553.97;5016786;28;20189;-87
2023/07/28 10:12:49;;;;;;;0.33;0.33;;;;;;;22.36;80.58;99562.94;5028381;28;20183;-86
2023/07/28 10:15:17;;;;;;;0.90;0.90;;;;;;;22.37;79.29;99567.28;5036156;28;20226;-86
2023/07/28 10:17:45;;;;;;;0.60;0.60;;;;;;;22.36;78.86;99562.94;5021332;28;20182;-86
2023/07/28 10:20:36;;;;;;;1.13;1.13;;;;;;;22.28;78.13;99564.22;5016626;28;20187;-86
2023/07/28 10:23:11;;;;;;;0.63;0.63;;;;;;;22.30;79.32;99578.50;5027851;28;20207;-86
2023/07/28 10:25:37;;;;;;;0.97;0.90;;;;;;;22.36;79.09;99576.06;5010542;28;20275;-86
2023/07/28 10:28:04;;;;;;;0.50;0.50;;;;;;;22.30;79.20;99574.94;5004513;28;20212;-86
2023/07/28 10:30:36;;;;;;;1.33;1.10;;;;;;;22.24;79.21;99578.16;5021405;28;20189;-86
2023/07/28 10:33:02;;;;;;;0.50;0.50;;;;;;;22.43;80.50;99576.00;5030424;28;20580;-85
2023/07/28 10:35:30;;;;;;;0.70;0.70;;;;;;;22.58;80.17;99576.66;5019423;28;20186;-86
2023/07/28 10:37:56;;;;;;;0.87;0.87;;;;;;;22.68;79.06;99587.66;5037461;28;20184;-85
2023/07/28 10:40:33;;;;;;;0.57;0.57;;;;;;;22.88;77.53;99582.31;5020884;28;20181;-86
2023/07/28 10:42:59;;;;;;;1.00;1.00;;;;;;;23.16;75.59;99578.38;5018899;28;20857;-85
2023/07/28 10:45:29;;;;;;;0.40;0.40;;;;;;;23.13;74.99;99579.97;5008041;28;20187;-84
2023/07/28 10:47:56;;;;;;;3.67;1.47;;;;;;;23.18;74.93;99584.31;5007679;28;20235;-85
2023/07/28 10:50:23;;;;;;;1.10;1.10;;;;;;;23.18;75.56;99589.91;5013532;28;20187;-86
2023/07/28 10:52:49;;;;;;;0.70;0.70;;;;;;;23.15;76.71;99582.38;5013513;28;20347;-85
2023/07/28 10:55:20;;;;;;;7.17;1.10;;;;;;;23.16;77.25;99589.53;5024837;28;20188;-85
2023/07/28 10:57:46;;;;;;;0.63;0.63;;;;;;;23.14;76.85;99584.34;5024195;28;20188;-84
2023/07/28 11:00:14;;;;;;;0.90;0.90;;;;;;;22.98;76.23;99572.22;5009993;28;20188;-87
2023/07/28 11:02:44;;;;;;;0.63;0.63;;;;;;;22.85;76.22;99583.13;5031213;28;20194;-87
2023/07/28 11:05:14;;;;;;;1.23;1.13;;;;;;;22.72;76.58;99582.06;5017029;28;20671;-86
2023/07/28 11:07:43;;;;;;;1.80;1.70;;;;;;;22.52;76.50;99577.09;5001096;28;20214;-86
2023/07/28 11:10:11;;;;;;;0.10;0.10;;;;;;;22.55;78.01;99584.59;5029712;28;20273;-86
2023/07/28 11:12:40;;;;;;;0.40;0.40;;;;;;;22.70;78.34;99579.66;5027051;28;20207;-86
2023/07/28 11:15:10;;;;;;;0.77;0.77;;;;;;;22.71;78.95;99580.47;5029140;28;20554;-86
2023/07/28 11:17:37;;;;;;;1.37;1.27;;;;;;;22.65;79.05;99582.13;5009110;28;20309;-86
2023/07/28 11:20:03;;;;;;;0.80;0.80;;;;;;;22.94;77.12;99575.06;5002586;28;20208;-87
2023/07/28 11:22:28;;;;;;;0.77;0.70;;;;;;;23.20;74.05;99567.97;5039245;28;20207;-87
2023/07/28 11:24:53;;;;;;;1.03;0.57;;;;;;;23.22;73.58;99573.13;5013528;28;20264;-86